Aegean Tiffany — SVAE9 — position and weather

sailwx.info

Track history (hours):
 
Tides and Currents Weather Stations Pressure Air Temp Water Temp Dewpoint Dewpoint Depression Visibility Wind Speed Wind Dir Waves Ship Positions

Aegean Tiffany

Last reported at 2015-Aug-27 21:24 UTC. Time now 2015-Aug-30 10:00 UTC.
Position N 37°54' E 023°07'.

Length 80 m; draft 5.4 m.

Type: Tanker. MMSI: 240870000.

Date/timePositionNaut miles runAvg speedWind from/ knotsBaromVisibWave heightAir tempDewpointWater temp
2015-Aug-27 21:24N 37°54' E 023°07'7 7.8
2015-Aug-27 20:33N 37°55' E 023°15'8 7.8
2015-Aug-27 19:33N 37°57' E 023°25'6 6.3
2015-Aug-27 18:33N 38°02' E 023°31'1 1.1
2015-Aug-27 17:23N 38°02' E 023°32'1 1.2
2015-Aug-27 16:33N 38°02' E 023°31'0 0.0
2015-Aug-27 15:33N 38°02' E 023°31'0 0.0
2015-Aug-27 14:33N 38°02' E 023°31'0 0.0
2015-Aug-27 13:33N 38°02' E 023°31'0 0.0
2015-Aug-27 12:33N 38°02' E 023°31'0 0.0
2015-Aug-27 11:33N 38°02' E 023°31'0 0.0
2015-Aug-27 10:33N 38°02' E 023°31'0 0.0
2015-Aug-27 09:33N 38°02' E 023°31'0 0.0
2015-Aug-27 08:34N 38°02' E 023°31'0 0.0
2015-Aug-27 07:33N 38°02' E 023°31'0 0.0
2015-Aug-27 06:33N 38°02' E 023°31'0 0.0
2015-Aug-27 05:33N 38°02' E 023°31'0 0.0
2015-Aug-27 04:33N 38°02' E 023°31'0 0.0
2015-Aug-27 03:33N 38°02' E 023°31'0 0.0
2015-Aug-27 02:33N 38°02' E 023°31'0 0.0
2015-Aug-27 01:33N 38°02' E 023°31'0 0.0
2015-Aug-27 00:33N 38°02' E 023°31'0 0.0
2015-Aug-26 23:33N 38°02' E 023°31'0 0.0
2015-Aug-26 22:33N 38°02' E 023°31'0 0.0
2015-Aug-26 21:33N 38°02' E 023°31'0 0.0
2015-Aug-26 20:33N 38°02' E 023°31'1 0.9
2015-Aug-26 19:30N 38°02' E 023°32'0 0.0
2015-Aug-26 18:32N 38°02' E 023°32'0 0.0
2015-Aug-26 12:26N 38°02' E 023°32'4 4.1
2015-Aug-26 11:33N 37°59' E 023°33'2 2.0
2015-Aug-26 10:33N 37°57' E 023°34'2 2.3
2015-Aug-26 09:33N 37°57' E 023°37'0 0.0
2015-Aug-26 08:34N 37°57' E 023°37'3 1.5
2015-Aug-26 06:33N 37°57' E 023°33'5 4.6
2015-Aug-26 05:34N 38°02' E 023°32'0 0.3
2015-Aug-26 04:34N 38°02' E 023°32'0 0.1
2015-Aug-26 03:34N 38°02' E 023°32'6 5.9
2015-Aug-26 02:34N 37°60' E 023°25'6 6.4
2015-Aug-26 01:34N 37°56' E 023°18'9 8.2
2015-Aug-26 00:30N 37°55' E 023°08'  
2015-Aug-21 20:07N 37°54' E 023°06'5 7.8
2015-Aug-21 19:27N 37°55' E 023°12'7 7.9
2015-Aug-21 18:33N 37°56' E 023°21'7 6.4
2015-Aug-21 17:27N 38°01' E 023°28'3 3.8
2015-Aug-21 16:33N 38°02' E 023°32'0 0.0
2015-Aug-21 15:33N 38°02' E 023°32'0 0.0
2015-Aug-21 14:33N 38°02' E 023°32'0 0.0
2015-Aug-21 13:33N 38°02' E 023°32'0 0.0
2015-Aug-21 12:33N 38°02' E 023°32'0 0.0
2015-Aug-21 11:33N 38°02' E 023°32'0 0.0
2015-Aug-21 10:33N 38°02' E 023°32'0 0.1
2015-Aug-21 09:33N 38°02' E 023°32'1 1.1
2015-Aug-21 08:33N 38°02' E 023°31'0 0.0
2015-Aug-21 07:33N 38°02' E 023°31'0 0.0
2015-Aug-21 06:33N 38°02' E 023°31'0 0.0
2015-Aug-21 05:33N 38°02' E 023°31'0 0.0
2015-Aug-21 04:33N 38°02' E 023°31'0 0.0
2015-Aug-21 03:33N 38°02' E 023°31'0 0.0
2015-Aug-21 02:33N 38°02' E 023°31'0 0.0
2015-Aug-21 01:33N 38°02' E 023°31'0 0.0
2015-Aug-21 00:33N 38°02' E 023°31'0 0.0
2015-Aug-20 23:33N 38°02' E 023°31'0 0.0
2015-Aug-20 22:33N 38°02' E 023°31'0 0.0
2015-Aug-20 21:33N 38°02' E 023°31'0 0.3
2015-Aug-20 20:33N 38°02' E 023°31'1 0.8
2015-Aug-20 19:33N 38°02' E 023°32'0 0.0
2015-Aug-20 18:33N 38°02' E 023°32'0 0.0
2015-Aug-20 08:33N 38°02' E 023°32'0 0.0
2015-Aug-20 07:33N 38°02' E 023°32'0 0.0
2015-Aug-20 06:33N 38°02' E 023°32'0 0.0
2015-Aug-20 05:33N 38°02' E 023°32'2 1.5
2015-Aug-20 04:33N 38°01' E 023°30'7 6.6
2015-Aug-20 03:34N 37°57' E 023°24'9 8.8
2015-Aug-20 02:33N 37°55' E 023°13'31 7.4
2015-Aug-19 22:23N 38°07' E 022°37'  
Track history (hours):
 
Tides and Currents Weather Stations Pressure Air Temp Water Temp Dewpoint Dewpoint Depression Visibility Wind Speed Wind Dir Waves Ship Positions

Aegean Tiffany

Last reported at 2015-Aug-27 21:24 UTC. Time now 2015-Aug-30 10:00 UTC.
Position N 37°54' E 023°07'.

Length 80 m; draft 5.4 m.

Type: Tanker. MMSI: 240870000.

Date/timePositionNaut miles runAvg speedWind from/ knotsBaromVisibWave heightAir tempDewpointWater temp
2015-Aug-27 21:24N 37°54' E 023°07'7 7.8
2015-Aug-27 20:33N 37°55' E 023°15'8 7.8
2015-Aug-27 19:33N 37°57' E 023°25'6 6.3
2015-Aug-27 18:33N 38°02' E 023°31'1 1.1
2015-Aug-27 17:23N 38°02' E 023°32'1 1.2
2015-Aug-27 16:33N 38°02' E 023°31'0 0.0
2015-Aug-27 15:33N 38°02' E 023°31'0 0.0
2015-Aug-27 14:33N 38°02' E 023°31'0 0.0
2015-Aug-27 13:33N 38°02' E 023°31'0 0.0
2015-Aug-27 12:33N 38°02' E 023°31'0 0.0
2015-Aug-27 11:33N 38°02' E 023°31'0 0.0
2015-Aug-27 10:33N 38°02' E 023°31'0 0.0
2015-Aug-27 09:33N 38°02' E 023°31'0 0.0
2015-Aug-27 08:34N 38°02' E 023°31'0 0.0
2015-Aug-27 07:33N 38°02' E 023°31'0 0.0
2015-Aug-27 06:33N 38°02' E 023°31'0 0.0
2015-Aug-27 05:33N 38°02' E 023°31'0 0.0
2015-Aug-27 04:33N 38°02' E 023°31'0 0.0
2015-Aug-27 03:33N 38°02' E 023°31'0 0.0
2015-Aug-27 02:33N 38°02' E 023°31'0 0.0
2015-Aug-27 01:33N 38°02' E 023°31'0 0.0
2015-Aug-27 00:33N 38°02' E 023°31'0 0.0
2015-Aug-26 23:33N 38°02' E 023°31'0 0.0
2015-Aug-26 22:33N 38°02' E 023°31'0 0.0
2015-Aug-26 21:33N 38°02' E 023°31'0 0.0
2015-Aug-26 20:33N 38°02' E 023°31'1 0.9
2015-Aug-26 19:30N 38°02' E 023°32'0 0.0
2015-Aug-26 18:32N 38°02' E 023°32'0 0.0
2015-Aug-26 12:26N 38°02' E 023°32'4 4.1
2015-Aug-26 11:33N 37°59' E 023°33'2 2.0
2015-Aug-26 10:33N 37°57' E 023°34'2 2.3
2015-Aug-26 09:33N 37°57' E 023°37'0 0.0
2015-Aug-26 08:34N 37°57' E 023°37'3 1.5
2015-Aug-26 06:33N 37°57' E 023°33'5 4.6
2015-Aug-26 05:34N 38°02' E 023°32'0 0.3
2015-Aug-26 04:34N 38°02' E 023°32'0 0.1
2015-Aug-26 03:34N 38°02' E 023°32'6 5.9
2015-Aug-26 02:34N 37°60' E 023°25'6 6.4
2015-Aug-26 01:34N 37°56' E 023°18'9 8.2
2015-Aug-26 00:30N 37°55' E 023°08'  
2015-Aug-21 20:07N 37°54' E 023°06'5 7.8
2015-Aug-21 19:27N 37°55' E 023°12'7 7.9
2015-Aug-21 18:33N 37°56' E 023°21'7 6.4
2015-Aug-21 17:27N 38°01' E 023°28'3 3.8
2015-Aug-21 16:33N 38°02' E 023°32'0 0.0
2015-Aug-21 15:33N 38°02' E 023°32'0 0.0
2015-Aug-21 14:33N 38°02' E 023°32'0 0.0
2015-Aug-21 13:33N 38°02' E 023°32'0 0.0
2015-Aug-21 12:33N 38°02' E 023°32'0 0.0
2015-Aug-21 11:33N 38°02' E 023°32'0 0.0
2015-Aug-21 10:33N 38°02' E 023°32'0 0.1
2015-Aug-21 09:33N 38°02' E 023°32'1 1.1
2015-Aug-21 08:33N 38°02' E 023°31'0 0.0
2015-Aug-21 07:33N 38°02' E 023°31'0 0.0
2015-Aug-21 06:33N 38°02' E 023°31'0 0.0
2015-Aug-21 05:33N 38°02' E 023°31'0 0.0
2015-Aug-21 04:33N 38°02' E 023°31'0 0.0
2015-Aug-21 03:33N 38°02' E 023°31'0 0.0
2015-Aug-21 02:33N 38°02' E 023°31'0 0.0
2015-Aug-21 01:33N 38°02' E 023°31'0 0.0
2015-Aug-21 00:33N 38°02' E 023°31'0 0.0
2015-Aug-20 23:33N 38°02' E 023°31'0 0.0
2015-Aug-20 22:33N 38°02' E 023°31'0 0.0
2015-Aug-20 21:33N 38°02' E 023°31'0 0.3
2015-Aug-20 20:33N 38°02' E 023°31'1 0.8
2015-Aug-20 19:33N 38°02' E 023°32'0 0.0
2015-Aug-20 18:33N 38°02' E 023°32'0 0.0
2015-Aug-20 08:33N 38°02' E 023°32'0 0.0
2015-Aug-20 07:33N 38°02' E 023°32'0 0.0
2015-Aug-20 06:33N 38°02' E 023°32'0 0.0
2015-Aug-20 05:33N 38°02' E 023°32'2 1.5
2015-Aug-20 04:33N 38°01' E 023°30'7 6.6
2015-Aug-20 03:34N 37°57' E 023°24'9 8.8
2015-Aug-20 02:33N 37°55' E 023°13'31 7.4
2015-Aug-19 22:23N 38°07' E 022°37'  

Dump ship's entire track history